sensor_id;sensor_type;location;lat;lon;timestamp;P1;durP1;ratioP1;P2;durP2;ratioP2
2313;SDS011;42279;51.388;7.000;2023-01-20T00:01:41;21.33;;;12.82;;
2313;SDS011;42279;51.388;7.000;2023-01-20T00:04:10;21.30;;;14.52;;
2313;SDS011;42279;51.388;7.000;2023-01-20T00:06:36;16.30;;;12.23;;
2313;SDS011;42279;51.388;7.000;2023-01-20T00:09:03;22.40;;;13.82;;
2313;SDS011;42279;51.388;7.000;2023-01-20T00:11:32;22.10;;;13.63;;
2313;SDS011;42279;51.388;7.000;2023-01-20T00:13:58;27.15;;;15.15;;
2313;SDS011;42279;51.388;7.000;2023-01-20T00:16:25;20.63;;;14.93;;
2313;SDS011;42279;51.388;7.000;2023-01-20T00:18:51;20.52;;;13.80;;
2313;SDS011;42279;51.388;7.000;2023-01-20T00:21:19;9.88;;;6.55;;
2313;SDS011;42279;51.388;7.000;2023-01-20T00:23:46;20.70;;;13.85;;
2313;SDS011;42279;51.388;7.000;2023-01-20T00:26:13;23.10;;;14.50;;
2313;SDS011;42279;51.388;7.000;2023-01-20T00:28:40;20.47;;;12.00;;
2313;SDS011;42279;51.388;7.000;2023-01-20T00:31:13;18.00;;;12.97;;
2313;SDS011;42279;51.388;7.000;2023-01-20T00:33:39;21.73;;;13.37;;
2313;SDS011;42279;51.388;7.000;2023-01-20T00:36:06;20.27;;;11.20;;
2313;SDS011;42279;51.388;7.000;2023-01-20T00:38:32;19.50;;;13.85;;
2313;SDS011;42279;51.388;7.000;2023-01-20T00:40:58;25.75;;;13.90;;
2313;SDS011;42279;51.388;7.000;2023-01-20T00:43:27;28.30;;;16.15;;
2313;SDS011;42279;51.388;7.000;2023-01-20T00:45:56;22.20;;;13.32;;
2313;SDS011;42279;51.388;7.000;2023-01-20T00:48:22;17.97;;;13.00;;
2313;SDS011;42279;51.388;7.000;2023-01-20T00:50:48;20.42;;;14.82;;
2313;SDS011;42279;51.388;7.000;2023-01-20T00:53:14;30.00;;;16.17;;
2313;SDS011;42279;51.388;7.000;2023-01-20T00:55:40;26.93;;;18.03;;
2313;SDS011;42279;51.388;7.000;2023-01-20T00:58:06;30.43;;;14.50;;
2313;SDS011;42279;51.388;7.000;2023-01-20T01:00:32;26.10;;;16.93;;
2313;SDS011;42279;51.388;7.000;2023-01-20T01:02:58;28.63;;;17.60;;
2313;SDS011;42279;51.388;7.000;2023-01-20T01:05:24;27.13;;;15.32;;
2313;SDS011;42279;51.388;7.000;2023-01-20T01:07:50;23.40;;;11.77;;
2313;SDS011;42279;51.388;7.000;2023-01-20T01:10:16;23.80;;;14.70;;
2313;SDS011;42279;51.388;7.000;2023-01-20T01:12:42;36.63;;;18.75;;
2313;SDS011;42279;51.388;7.000;2023-01-20T01:15:08;28.97;;;16.90;;
2313;SDS011;42279;51.388;7.000;2023-01-20T01:17:34;28.02;;;17.05;;
2313;SDS011;42279;51.388;7.000;2023-01-20T01:20:00;19.02;;;13.10;;
2313;SDS011;42279;51.388;7.000;2023-01-20T01:22:26;29.30;;;17.90;;
2313;SDS011;42279;51.388;7.000;2023-01-20T01:24:52;27.80;;;15.70;;
2313;SDS011;42279;51.388;7.000;2023-01-20T01:27:18;34.75;;;19.27;;
2313;SDS011;42279;51.388;7.000;2023-01-20T01:29:44;34.10;;;18.07;;
2313;SDS011;42279;51.388;7.000;2023-01-20T01:32:10;31.70;;;17.07;;
2313;SDS011;42279;51.388;7.000;2023-01-20T01:34:36;40.50;;;19.10;;
2313;SDS011;42279;51.388;7.000;2023-01-20T01:37:02;31.93;;;17.50;;
2313;SDS011;42279;51.388;7.000;2023-01-20T01:39:28;35.33;;;18.10;;
2313;SDS011;42279;51.388;7.000;2023-01-20T01:41:54;31.95;;;17.90;;
2313;SDS011;42279;51.388;7.000;2023-01-20T01:44:20;37.97;;;20.77;;
2313;SDS011;42279;51.388;7.000;2023-01-20T01:46:46;30.07;;;15.50;;
2313;SDS011;42279;51.388;7.000;2023-01-20T01:49:15;36.72;;;18.40;;
2313;SDS011;42279;51.388;7.000;2023-01-20T01:51:54;32.90;;;18.55;;
2313;SDS011;42279;51.388;7.000;2023-01-20T01:54:23;31.05;;;18.42;;
2313;SDS011;42279;51.388;7.000;2023-01-20T01:56:50;27.48;;;17.15;;
2313;SDS011;42279;51.388;7.000;2023-01-20T01:59:16;34.60;;;19.02;;
2313;SDS011;42279;51.388;7.000;2023-01-20T02:01:48;30.58;;;17.00;;
2313;SDS011;42279;51.388;7.000;2023-01-20T02:04:15;32.08;;;17.77;;
2313;SDS011;42279;51.388;7.000;2023-01-20T02:06:43;24.15;;;15.32;;
2313;SDS011;42279;51.388;7.000;2023-01-20T02:09:10;25.42;;;12.98;;
2313;SDS011;42279;51.388;7.000;2023-01-20T02:11:37;39.83;;;20.27;;
2313;SDS011;42279;51.388;7.000;2023-01-20T02:14:04;28.73;;;17.02;;
2313;SDS011;42279;51.388;7.000;2023-01-20T02:19:19;35.90;;;20.83;;
2313;SDS011;42279;51.388;7.000;2023-01-20T02:27:16;38.65;;;19.38;;
2313;SDS011;42279;51.388;7.000;2023-01-20T02:37:24;25.70;;;14.80;;
2313;SDS011;42279;51.388;7.000;2023-01-20T02:39:57;35.28;;;17.88;;
2313;SDS011;42279;51.388;7.000;2023-01-20T02:42:43;17.42;;;11.82;;
2313;SDS011;42279;51.388;7.000;2023-01-20T02:45:14;30.70;;;17.02;;
2313;SDS011;42279;51.388;7.000;2023-01-20T02:48:25;30.70;;;17.65;;
2313;SDS011;42279;51.388;7.000;2023-01-20T02:50:34;32.42;;;17.73;;
2313;SDS011;42279;51.388;7.000;2023-01-20T02:53:01;30.42;;;16.50;;
2313;SDS011;42279;51.388;7.000;2023-01-20T02:55:36;42.45;;;22.00;;
2313;SDS011;42279;51.388;7.000;2023-01-20T02:58:04;32.88;;;20.08;;
2313;SDS011;42279;51.388;7.000;2023-01-20T03:00:35;33.35;;;18.58;;
2313;SDS011;42279;51.388;7.000;2023-01-20T03:03:02;35.05;;;21.17;;
2313;SDS011;42279;51.388;7.000;2023-01-20T03:05:32;34.95;;;19.08;;
2313;SDS011;42279;51.388;7.000;2023-01-20T03:08:00;34.38;;;21.17;;
2313;SDS011;42279;51.388;7.000;2023-01-20T03:10:28;31.38;;;18.75;;
2313;SDS011;42279;51.388;7.000;2023-01-20T03:12:56;40.85;;;20.60;;
2313;SDS011;42279;51.388;7.000;2023-01-20T03:15:25;38.20;;;19.60;;
2313;SDS011;42279;51.388;7.000;2023-01-20T03:17:55;33.22;;;20.35;;
2313;SDS011;42279;51.388;7.000;2023-01-20T03:20:22;32.95;;;19.38;;
2313;SDS011;42279;51.388;7.000;2023-01-20T03:22:48;28.15;;;16.92;;
2313;SDS011;42279;51.388;7.000;2023-01-20T03:25:14;23.55;;;14.50;;
2313;SDS011;42279;51.388;7.000;2023-01-20T03:27:41;26.00;;;15.73;;
2313;SDS011;42279;51.388;7.000;2023-01-20T03:30:13;40.88;;;19.25;;
2313;SDS011;42279;51.388;7.000;2023-01-20T03:32:41;29.63;;;16.35;;
2313;SDS011;42279;51.388;7.000;2023-01-20T03:35:08;35.15;;;17.90;;
2313;SDS011;42279;51.388;7.000;2023-01-20T03:37:34;30.73;;;15.95;;
2313;SDS011;42279;51.388;7.000;2023-01-20T03:40:00;32.50;;;18.23;;
2313;SDS011;42279;51.388;7.000;2023-01-20T03:42:30;36.33;;;15.20;;
2313;SDS011;42279;51.388;7.000;2023-01-20T03:50:13;31.20;;;16.52;;
2313;SDS011;42279;51.388;7.000;2023-01-20T03:52:44;29.98;;;16.65;;
2313;SDS011;42279;51.388;7.000;2023-01-20T03:55:15;38.17;;;18.50;;
2313;SDS011;42279;51.388;7.000;2023-01-20T03:57:50;28.73;;;17.20;;
2313;SDS011;42279;51.388;7.000;2023-01-20T04:00:18;28.35;;;14.68;;
2313;SDS011;42279;51.388;7.000;2023-01-20T04:02:45;28.17;;;17.35;;
2313;SDS011;42279;51.388;7.000;2023-01-20T04:05:11;24.57;;;15.17;;
2313;SDS011;42279;51.388;7.000;2023-01-20T04:07:38;25.17;;;15.45;;
2313;SDS011;42279;51.388;7.000;2023-01-20T04:10:06;14.35;;;7.72;;
2313;SDS011;42279;51.388;7.000;2023-01-20T04:12:34;23.45;;;10.80;;
2313;SDS011;42279;51.388;7.000;2023-01-20T04:15:04;18.85;;;9.40;;
2313;SDS011;42279;51.388;7.000;2023-01-20T04:17:31;25.17;;;13.48;;
2313;SDS011;42279;51.388;7.000;2023-01-20T04:19:57;22.20;;;12.32;;
2313;SDS011;42279;51.388;7.000;2023-01-20T04:24:53;26.23;;;13.57;;
2313;SDS011;42279;51.388;7.000;2023-01-20T04:27:20;25.67;;;14.43;;
2313;SDS011;42279;51.388;7.000;2023-01-20T04:29:46;20.00;;;12.70;;
2313;SDS011;42279;51.388;7.000;2023-01-20T04:32:12;31.97;;;15.43;;
2313;SDS011;42279;51.388;7.000;2023-01-20T04:34:38;29.93;;;15.00;;
2313;SDS011;42279;51.388;7.000;2023-01-20T04:37:04;28.20;;;15.83;;
2313;SDS011;42279;51.388;7.000;2023-01-20T04:39:30;23.60;;;13.90;;
2313;SDS011;42279;51.388;7.000;2023-01-20T04:41:56;21.70;;;12.68;;
2313;SDS011;42279;51.388;7.000;2023-01-20T04:44:22;18.35;;;10.57;;
2313;SDS011;42279;51.388;7.000;2023-01-20T04:46:48;21.90;;;12.38;;
2313;SDS011;42279;51.388;7.000;2023-01-20T04:49:15;20.50;;;12.90;;
2313;SDS011;42279;51.388;7.000;2023-01-20T04:51:40;25.57;;;11.47;;
2313;SDS011;42279;51.388;7.000;2023-01-20T04:54:07;25.48;;;13.70;;
2313;SDS011;42279;51.388;7.000;2023-01-20T04:56:33;22.30;;;13.38;;
2313;SDS011;42279;51.388;7.000;2023-01-20T04:58:59;20.40;;;12.47;;
2313;SDS011;42279;51.388;7.000;2023-01-20T05:01:25;23.73;;;10.23;;
2313;SDS011;42279;51.388;7.000;2023-01-20T05:03:51;18.40;;;11.70;;
2313;SDS011;42279;51.388;7.000;2023-01-20T05:06:17;20.43;;;12.90;;
2313;SDS011;42279;51.388;7.000;2023-01-20T05:08:43;21.80;;;13.40;;
2313;SDS011;42279;51.388;7.000;2023-01-20T05:11:09;22.40;;;13.23;;
2313;SDS011;42279;51.388;7.000;2023-01-20T05:13:35;27.60;;;12.83;;
2313;SDS011;42279;51.388;7.000;2023-01-20T05:16:06;22.75;;;12.88;;
2313;SDS011;42279;51.388;7.000;2023-01-20T05:18:32;26.52;;;15.40;;
2313;SDS011;42279;51.388;7.000;2023-01-20T05:20:59;22.45;;;12.52;;
2313;SDS011;42279;51.388;7.000;2023-01-20T05:23:24;23.33;;;13.97;;
2313;SDS011;42279;51.388;7.000;2023-01-20T05:25:51;24.13;;;14.95;;
2313;SDS011;42279;51.388;7.000;2023-01-20T05:28:17;21.20;;;12.75;;
2313;SDS011;42279;51.388;7.000;2023-01-20T05:30:43;24.43;;;13.83;;
2313;SDS011;42279;51.388;7.000;2023-01-20T05:33:10;20.25;;;13.85;;
2313;SDS011;42279;51.388;7.000;2023-01-20T05:35:39;25.20;;;15.70;;
2313;SDS011;42279;51.388;7.000;2023-01-20T05:38:05;27.55;;;14.13;;
2313;SDS011;42279;51.388;7.000;2023-01-20T05:40:31;25.25;;;13.55;;
2313;SDS011;42279;51.388;7.000;2023-01-20T05:43:00;19.50;;;12.23;;
2313;SDS011;42279;51.388;7.000;2023-01-20T05:45:27;21.75;;;13.15;;
2313;SDS011;42279;51.388;7.000;2023-01-20T05:47:54;25.73;;;11.57;;
2313;SDS011;42279;51.388;7.000;2023-01-20T05:50:20;24.33;;;12.50;;
2313;SDS011;42279;51.388;7.000;2023-01-20T05:52:46;24.73;;;12.43;;
2313;SDS011;42279;51.388;7.000;2023-01-20T05:55:12;30.70;;;15.00;;
2313;SDS011;42279;51.388;7.000;2023-01-20T05:57:38;29.52;;;15.73;;
2313;SDS011;42279;51.388;7.000;2023-01-20T06:00:04;52.23;;;16.50;;
2313;SDS011;42279;51.388;7.000;2023-01-20T06:02:30;26.08;;;15.35;;
2313;SDS011;42279;51.388;7.000;2023-01-20T06:04:57;30.92;;;15.77;;
2313;SDS011;42279;51.388;7.000;2023-01-20T06:07:26;22.65;;;13.85;;
2313;SDS011;42279;51.388;7.000;2023-01-20T06:09:52;23.98;;;13.77;;
2313;SDS011;42279;51.388;7.000;2023-01-20T06:12:18;23.77;;;13.38;;
2313;SDS011;42279;51.388;7.000;2023-01-20T06:14:44;29.05;;;16.55;;
2313;SDS011;42279;51.388;7.000;2023-01-20T06:17:10;33.13;;;17.40;;
2313;SDS011;42279;51.388;7.000;2023-01-20T06:19:36;34.90;;;17.77;;
2313;SDS011;42279;51.388;7.000;2023-01-20T06:22:03;29.42;;;16.73;;
2313;SDS011;42279;51.388;7.000;2023-01-20T06:24:29;27.48;;;15.98;;
2313;SDS011;42279;51.388;7.000;2023-01-20T06:26:55;27.58;;;18.02;;
2313;SDS011;42279;51.388;7.000;2023-01-20T06:29:21;38.40;;;17.87;;
2313;SDS011;42279;51.388;7.000;2023-01-20T06:31:47;27.85;;;16.67;;
2313;SDS011;42279;51.388;7.000;2023-01-20T06:34:13;28.70;;;13.63;;
2313;SDS011;42279;51.388;7.000;2023-01-20T06:36:39;30.70;;;15.57;;
2313;SDS011;42279;51.388;7.000;2023-01-20T06:39:05;31.02;;;16.55;;
2313;SDS011;42279;51.388;7.000;2023-01-20T06:41:31;30.95;;;17.38;;
2313;SDS011;42279;51.388;7.000;2023-01-20T06:43:57;36.42;;;18.35;;
2313;SDS011;42279;51.388;7.000;2023-01-20T06:46:23;32.70;;;16.67;;
2313;SDS011;42279;51.388;7.000;2023-01-20T06:48:50;39.17;;;20.10;;
2313;SDS011;42279;51.388;7.000;2023-01-20T06:51:17;23.92;;;13.63;;
2313;SDS011;42279;51.388;7.000;2023-01-20T06:53:43;28.52;;;15.82;;
2313;SDS011;42279;51.388;7.000;2023-01-20T06:56:10;29.00;;;16.55;;
2313;SDS011;42279;51.388;7.000;2023-01-20T06:58:36;32.30;;;17.05;;
2313;SDS011;42279;51.388;7.000;2023-01-20T07:01:04;30.02;;;15.63;;
2313;SDS011;42279;51.388;7.000;2023-01-20T07:03:32;25.98;;;17.15;;
2313;SDS011;42279;51.388;7.000;2023-01-20T07:05:59;26.33;;;14.63;;
2313;SDS011;42279;51.388;7.000;2023-01-20T07:08:25;29.15;;;18.25;;
2313;SDS011;42279;51.388;7.000;2023-01-20T07:10:52;25.80;;;15.85;;
2313;SDS011;42279;51.388;7.000;2023-01-20T07:13:18;33.47;;;15.13;;
2313;SDS011;42279;51.388;7.000;2023-01-20T07:15:44;27.53;;;14.80;;
2313;SDS011;42279;51.388;7.000;2023-01-20T07:18:10;24.58;;;14.77;;
2313;SDS011;42279;51.388;7.000;2023-01-20T07:20:36;21.83;;;14.10;;
2313;SDS011;42279;51.388;7.000;2023-01-20T07:23:07;22.55;;;14.60;;
2313;SDS011;42279;51.388;7.000;2023-01-20T07:25:33;15.23;;;11.53;;
2313;SDS011;42279;51.388;7.000;2023-01-20T07:28:01;14.48;;;9.82;;
2313;SDS011;42279;51.388;7.000;2023-01-20T07:30:28;18.35;;;13.32;;
2313;SDS011;42279;51.388;7.000;2023-01-20T07:32:54;17.13;;;11.70;;
2313;SDS011;42279;51.388;7.000;2023-01-20T07:35:20;25.63;;;13.45;;
2313;SDS011;42279;51.388;7.000;2023-01-20T07:37:46;17.95;;;11.40;;
2313;SDS011;42279;51.388;7.000;2023-01-20T07:40:12;17.70;;;12.82;;
2313;SDS011;42279;51.388;7.000;2023-01-20T07:42:38;17.20;;;11.10;;
2313;SDS011;42279;51.388;7.000;2023-01-20T07:45:04;15.10;;;12.10;;
2313;SDS011;42279;51.388;7.000;2023-01-20T07:47:30;18.75;;;13.35;;
2313;SDS011;42279;51.388;7.000;2023-01-20T07:49:56;18.67;;;12.13;;
2313;SDS011;42279;51.388;7.000;2023-01-20T07:52:22;22.30;;;11.63;;
2313;SDS011;42279;51.388;7.000;2023-01-20T07:54:48;16.67;;;12.43;;
2313;SDS011;42279;51.388;7.000;2023-01-20T07:57:14;17.85;;;13.02;;
2313;SDS011;42279;51.388;7.000;2023-01-20T07:59:40;19.07;;;12.97;;
2313;SDS011;42279;51.388;7.000;2023-01-20T08:02:07;18.47;;;13.37;;
2313;SDS011;42279;51.388;7.000;2023-01-20T08:04:34;22.27;;;13.07;;
2313;SDS011;42279;51.388;7.000;2023-01-20T08:07:00;15.30;;;10.82;;
2313;SDS011;42279;51.388;7.000;2023-01-20T08:09:26;21.97;;;13.13;;
2313;SDS011;42279;51.388;7.000;2023-01-20T08:11:52;19.63;;;13.88;;
2313;SDS011;42279;51.388;7.000;2023-01-20T08:14:18;22.52;;;13.02;;
2313;SDS011;42279;51.388;7.000;2023-01-20T08:16:44;19.60;;;13.30;;
2313;SDS011;42279;51.388;7.000;2023-01-20T08:19:10;19.08;;;11.85;;
2313;SDS011;42279;51.388;7.000;2023-01-20T08:21:36;22.95;;;15.27;;
2313;SDS011;42279;51.388;7.000;2023-01-20T08:24:03;19.10;;;14.20;;
2313;SDS011;42279;51.388;7.000;2023-01-20T08:26:30;23.38;;;14.05;;
2313;SDS011;42279;51.388;7.000;2023-01-20T08:29:01;23.40;;;15.43;;
2313;SDS011;42279;51.388;7.000;2023-01-20T08:31:27;21.77;;;13.52;;
2313;SDS011;42279;51.388;7.000;2023-01-20T08:33:53;21.50;;;13.75;;
2313;SDS011;42279;51.388;7.000;2023-01-20T08:36:21;23.90;;;14.15;;
2313;SDS011;42279;51.388;7.000;2023-01-20T08:38:47;29.15;;;15.82;;
2313;SDS011;42279;51.388;7.000;2023-01-20T08:41:15;21.58;;;15.30;;
2313;SDS011;42279;51.388;7.000;2023-01-20T08:43:42;21.17;;;13.80;;
2313;SDS011;42279;51.388;7.000;2023-01-20T08:46:09;22.97;;;14.27;;
2313;SDS011;42279;51.388;7.000;2023-01-20T08:48:35;23.73;;;13.75;;
2313;SDS011;42279;51.388;7.000;2023-01-20T08:51:02;8.98;;;6.03;;
2313;SDS011;42279;51.388;7.000;2023-01-20T08:53:29;17.90;;;12.00;;
2313;SDS011;42279;51.388;7.000;2023-01-20T08:55:55;17.60;;;12.00;;
2313;SDS011;42279;51.388;7.000;2023-01-20T08:58:22;19.77;;;12.90;;
2313;SDS011;42279;51.388;7.000;2023-01-20T09:00:48;25.55;;;15.55;;
2313;SDS011;42279;51.388;7.000;2023-01-20T09:03:14;20.45;;;14.63;;
2313;SDS011;42279;51.388;7.000;2023-01-20T09:05:40;18.37;;;13.87;;
2313;SDS011;42279;51.388;7.000;2023-01-20T09:08:06;22.27;;;14.80;;
2313;SDS011;42279;51.388;7.000;2023-01-20T09:10:32;21.77;;;12.40;;
2313;SDS011;42279;51.388;7.000;2023-01-20T09:12:58;22.60;;;13.20;;
2313;SDS011;42279;51.388;7.000;2023-01-20T09:15:24;23.93;;;15.43;;
2313;SDS011;42279;51.388;7.000;2023-01-20T09:17:50;14.50;;;10.02;;
2313;SDS011;42279;51.388;7.000;2023-01-20T09:20:16;25.20;;;15.90;;
2313;SDS011;42279;51.388;7.000;2023-01-20T09:22:42;19.33;;;11.73;;
2313;SDS011;42279;51.388;7.000;2023-01-20T09:25:08;22.23;;;11.30;;
2313;SDS011;42279;51.388;7.000;2023-01-20T09:27:35;21.05;;;13.05;;
2313;SDS011;42279;51.388;7.000;2023-01-20T09:30:01;20.92;;;14.70;;
2313;SDS011;42279;51.388;7.000;2023-01-20T09:32:27;19.27;;;12.40;;
2313;SDS011;42279;51.388;7.000;2023-01-20T09:34:53;21.57;;;13.53;;
2313;SDS011;42279;51.388;7.000;2023-01-20T09:37:20;18.05;;;13.00;;
2313;SDS011;42279;51.388;7.000;2023-01-20T09:40:29;16.30;;;10.20;;
2313;SDS011;42279;51.388;7.000;2023-01-20T09:46:14;19.33;;;14.00;;
2313;SDS011;42279;51.388;7.000;2023-01-20T09:51:33;19.25;;;13.20;;
2313;SDS011;42279;51.388;7.000;2023-01-20T09:54:22;14.25;;;10.00;;
2313;SDS011;42279;51.388;7.000;2023-01-20T09:56:51;15.32;;;10.57;;
2313;SDS011;42279;51.388;7.000;2023-01-20T09:59:21;20.42;;;13.43;;
2313;SDS011;42279;51.388;7.000;2023-01-20T10:01:49;20.98;;;14.48;;
2313;SDS011;42279;51.388;7.000;2023-01-20T10:04:24;17.50;;;12.70;;
2313;SDS011;42279;51.388;7.000;2023-01-20T10:06:55;21.48;;;14.88;;
2313;SDS011;42279;51.388;7.000;2023-01-20T10:09:34;27.33;;;15.05;;
2313;SDS011;42279;51.388;7.000;2023-01-20T10:12:49;16.33;;;11.60;;
2313;SDS011;42279;51.388;7.000;2023-01-20T10:14:54;15.57;;;12.50;;
2313;SDS011;42279;51.388;7.000;2023-01-20T10:20:36;18.13;;;13.35;;
2313;SDS011;42279;51.388;7.000;2023-01-20T10:25:21;24.05;;;13.15;;
2313;SDS011;42279;51.388;7.000;2023-01-20T10:27:49;20.10;;;13.10;;
2313;SDS011;42279;51.388;7.000;2023-01-20T10:30:16;19.25;;;9.73;;
2313;SDS011;42279;51.388;7.000;2023-01-20T10:33:26;20.02;;;12.93;;
2313;SDS011;42279;51.388;7.000;2023-01-20T10:35:34;16.73;;;11.75;;
2313;SDS011;42279;51.388;7.000;2023-01-20T10:38:03;19.10;;;12.90;;
2313;SDS011;42279;51.388;7.000;2023-01-20T10:40:40;17.48;;;12.50;;
2313;SDS011;42279;51.388;7.000;2023-01-20T10:43:10;14.23;;;11.48;;
2313;SDS011;42279;51.388;7.000;2023-01-20T10:53:45;14.98;;;10.63;;
2313;SDS011;42279;51.388;7.000;2023-01-20T10:58:41;12.50;;;10.98;;
2313;SDS011;42279;51.388;7.000;2023-01-20T11:01:10;9.95;;;8.40;;
2313;SDS011;42279;51.388;7.000;2023-01-20T11:03:41;10.10;;;9.02;;
2313;SDS011;42279;51.388;7.000;2023-01-20T11:06:16;7.03;;;6.35;;
2313;SDS011;42279;51.388;7.000;2023-01-20T11:08:43;9.65;;;8.65;;
2313;SDS011;42279;51.388;7.000;2023-01-20T11:11:10;9.80;;;7.90;;
2313;SDS011;42279;51.388;7.000;2023-01-20T11:13:36;9.10;;;8.20;;
2313;SDS011;42279;51.388;7.000;2023-01-20T11:16:05;7.55;;;6.95;;
2313;SDS011;42279;51.388;7.000;2023-01-20T11:18:35;7.70;;;6.97;;
2313;SDS011;42279;51.388;7.000;2023-01-20T11:21:03;9.88;;;7.20;;
2313;SDS011;42279;51.388;7.000;2023-01-20T11:23:49;8.05;;;7.20;;
2313;SDS011;42279;51.388;7.000;2023-01-20T11:26:26;6.45;;;5.80;;
2313;SDS011;42279;51.388;7.000;2023-01-20T11:28:53;12.20;;;7.57;;
2313;SDS011;42279;51.388;7.000;2023-01-20T11:32:06;10.50;;;6.00;;
2313;SDS011;42279;51.388;7.000;2023-01-20T11:39:33;8.75;;;7.05;;
2313;SDS011;42279;51.388;7.000;2023-01-20T11:42:08;7.75;;;7.00;;
2313;SDS011;42279;51.388;7.000;2023-01-20T11:47:20;9.00;;;5.93;;
2313;SDS011;42279;51.388;7.000;2023-01-20T11:50:35;8.38;;;6.50;;
2313;SDS011;42279;51.388;7.000;2023-01-20T11:52:37;9.60;;;8.05;;
2313;SDS011;42279;51.388;7.000;2023-01-20T11:55:18;7.22;;;6.40;;
2313;SDS011;42279;51.388;7.000;2023-01-20T12:02:43;6.73;;;5.80;;
2313;SDS011;42279;51.388;7.000;2023-01-20T12:05:20;7.77;;;6.97;;
2313;SDS011;42279;51.388;7.000;2023-01-20T12:07:50;8.82;;;7.68;;
2313;SDS011;42279;51.388;7.000;2023-01-20T12:10:24;8.68;;;7.75;;
2313;SDS011;42279;51.388;7.000;2023-01-20T12:15:30;9.20;;;8.25;;
2313;SDS011;42279;51.388;7.000;2023-01-20T12:20:38;8.35;;;7.22;;
2313;SDS011;42279;51.388;7.000;2023-01-20T12:23:15;15.30;;;7.78;;
2313;SDS011;42279;51.388;7.000;2023-01-20T12:31:02;10.75;;;7.93;;
2313;SDS011;42279;51.388;7.000;2023-01-20T12:33:29;10.13;;;8.75;;
2313;SDS011;42279;51.388;7.000;2023-01-20T12:36:10;8.70;;;7.53;;
2313;SDS011;42279;51.388;7.000;2023-01-20T12:47:00;10.45;;;8.55;;
2313;SDS011;42279;51.388;7.000;2023-01-20T12:50:04;11.23;;;9.07;;
2313;SDS011;42279;51.388;7.000;2023-01-20T13:15:34;7.97;;;7.27;;
2313;SDS011;42279;51.388;7.000;2023-01-20T13:20:37;7.50;;;6.90;;
2313;SDS011;42279;51.388;7.000;2023-01-20T13:23:08;8.67;;;7.90;;
2313;SDS011;42279;51.388;7.000;2023-01-20T13:25:35;8.60;;;7.82;;
2313;SDS011;42279;51.388;7.000;2023-01-20T13:28:03;8.93;;;8.13;;
2313;SDS011;42279;51.388;7.000;2023-01-20T13:33:04;6.93;;;6.32;;
2313;SDS011;42279;51.388;7.000;2023-01-20T13:37:58;8.27;;;7.63;;
2313;SDS011;42279;51.388;7.000;2023-01-20T13:42:57;9.33;;;8.43;;
2313;SDS011;42279;51.388;7.000;2023-01-20T13:45:23;9.17;;;8.27;;
2313;SDS011;42279;51.388;7.000;2023-01-20T13:50:24;7.03;;;6.17;;
2313;SDS011;42279;51.388;7.000;2023-01-20T13:55:30;9.80;;;8.17;;
2313;SDS011;42279;51.388;7.000;2023-01-20T14:00:44;8.77;;;8.07;;
2313;SDS011;42279;51.388;7.000;2023-01-20T14:03:20;7.90;;;6.90;;
2313;SDS011;42279;51.388;7.000;2023-01-20T14:05:54;7.22;;;6.53;;
2313;SDS011;42279;51.388;7.000;2023-01-20T14:08:20;10.13;;;9.10;;
2313;SDS011;42279;51.388;7.000;2023-01-20T14:10:47;9.50;;;8.57;;
2313;SDS011;42279;51.388;7.000;2023-01-20T14:13:20;10.53;;;9.47;;
2313;SDS011;42279;51.388;7.000;2023-01-20T14:15:47;7.85;;;6.63;;
2313;SDS011;42279;51.388;7.000;2023-01-20T14:18:15;14.50;;;8.83;;
2313;SDS011;42279;51.388;7.000;2023-01-20T14:28:43;8.13;;;7.35;;
2313;SDS011;42279;51.388;7.000;2023-01-20T14:33:42;9.73;;;7.57;;
2313;SDS011;42279;51.388;7.000;2023-01-20T14:36:11;10.53;;;9.03;;
2313;SDS011;42279;51.388;7.000;2023-01-20T14:38:38;9.37;;;7.90;;
2313;SDS011;42279;51.388;7.000;2023-01-20T14:41:19;10.68;;;8.60;;
2313;SDS011;42279;51.388;7.000;2023-01-20T14:43:46;7.55;;;5.78;;
2313;SDS011;42279;51.388;7.000;2023-01-20T14:46:12;8.57;;;6.70;;
2313;SDS011;42279;51.388;7.000;2023-01-20T14:48:38;8.27;;;7.40;;
2313;SDS011;42279;51.388;7.000;2023-01-20T14:51:06;9.13;;;8.03;;
2313;SDS011;42279;51.388;7.000;2023-01-20T14:53:32;10.40;;;8.07;;
2313;SDS011;42279;51.388;7.000;2023-01-20T14:55:59;9.13;;;7.30;;
2313;SDS011;42279;51.388;7.000;2023-01-20T14:58:26;9.15;;;7.68;;
2313;SDS011;42279;51.388;7.000;2023-01-20T15:01:01;10.17;;;7.97;;
2313;SDS011;42279;51.388;7.000;2023-01-20T15:03:28;9.07;;;8.25;;
2313;SDS011;42279;51.388;7.000;2023-01-20T15:06:12;13.30;;;8.23;;
2313;SDS011;42279;51.388;7.000;2023-01-20T15:08:43;11.20;;;7.57;;
2313;SDS011;42279;51.388;7.000;2023-01-20T15:14:03;9.40;;;7.57;;
2313;SDS011;42279;51.388;7.000;2023-01-20T15:24:19;10.23;;;7.90;;
2313;SDS011;42279;51.388;7.000;2023-01-20T15:26:46;11.37;;;8.77;;
2313;SDS011;42279;51.388;7.000;2023-01-20T15:29:19;11.00;;;6.85;;
2313;SDS011;42279;51.388;7.000;2023-01-20T15:31:46;10.73;;;8.45;;
2313;SDS011;42279;51.388;7.000;2023-01-20T15:34:12;16.07;;;10.20;;
2313;SDS011;42279;51.388;7.000;2023-01-20T15:36:38;8.97;;;8.00;;
2313;SDS011;42279;51.388;7.000;2023-01-20T15:39:10;8.98;;;8.15;;
2313;SDS011;42279;51.388;7.000;2023-01-20T15:41:37;12.93;;;9.32;;
2313;SDS011;42279;51.388;7.000;2023-01-20T15:44:03;21.83;;;11.10;;
2313;SDS011;42279;51.388;7.000;2023-01-20T15:46:29;10.98;;;8.23;;
2313;SDS011;42279;51.388;7.000;2023-01-20T15:48:55;14.50;;;9.80;;
2313;SDS011;42279;51.388;7.000;2023-01-20T15:51:21;13.93;;;9.23;;
2313;SDS011;42279;51.388;7.000;2023-01-20T15:53:47;14.03;;;9.33;;
2313;SDS011;42279;51.388;7.000;2023-01-20T15:56:27;10.27;;;8.32;;
2313;SDS011;42279;51.388;7.000;2023-01-20T15:58:53;11.57;;;9.17;;
2313;SDS011;42279;51.388;7.000;2023-01-20T16:01:20;11.45;;;8.77;;
2313;SDS011;42279;51.388;7.000;2023-01-20T16:03:49;14.75;;;9.13;;
2313;SDS011;42279;51.388;7.000;2023-01-20T16:06:16;14.50;;;10.63;;
2313;SDS011;42279;51.388;7.000;2023-01-20T16:08:43;10.18;;;8.57;;
2313;SDS011;42279;51.388;7.000;2023-01-20T16:11:13;12.90;;;9.23;;
2313;SDS011;42279;51.388;7.000;2023-01-20T16:13:40;13.48;;;9.63;;
2313;SDS011;42279;51.388;7.000;2023-01-20T16:16:12;10.93;;;8.85;;
2313;SDS011;42279;51.388;7.000;2023-01-20T16:18:39;12.10;;;9.60;;
2313;SDS011;42279;51.388;7.000;2023-01-20T16:21:05;11.68;;;10.15;;
2313;SDS011;42279;51.388;7.000;2023-01-20T16:23:31;13.50;;;9.02;;
2313;SDS011;42279;51.388;7.000;2023-01-20T16:25:57;9.63;;;8.70;;
2313;SDS011;42279;51.388;7.000;2023-01-20T16:28:23;11.00;;;9.80;;
2313;SDS011;42279;51.388;7.000;2023-01-20T16:30:50;10.93;;;9.10;;
2313;SDS011;42279;51.388;7.000;2023-01-20T16:33:21;11.18;;;9.80;;
2313;SDS011;42279;51.388;7.000;2023-01-20T16:35:54;14.00;;;9.90;;
2313;SDS011;42279;51.388;7.000;2023-01-20T16:38:21;13.77;;;10.10;;
2313;SDS011;42279;51.388;7.000;2023-01-20T16:40:52;13.07;;;9.75;;
2313;SDS011;42279;51.388;7.000;2023-01-20T16:43:18;8.02;;;5.70;;
2313;SDS011;42279;51.388;7.000;2023-01-20T16:45:48;10.63;;;9.27;;
2313;SDS011;42279;51.388;7.000;2023-01-20T16:48:22;14.77;;;10.02;;
2313;SDS011;42279;51.388;7.000;2023-01-20T16:50:49;14.93;;;11.73;;
2313;SDS011;42279;51.388;7.000;2023-01-20T16:53:15;35.30;;;16.15;;
2313;SDS011;42279;51.388;7.000;2023-01-20T16:55:44;15.50;;;10.40;;
2313;SDS011;42279;51.388;7.000;2023-01-20T16:58:11;15.35;;;10.50;;
2313;SDS011;42279;51.388;7.000;2023-01-20T17:00:37;13.40;;;10.27;;
2313;SDS011;42279;51.388;7.000;2023-01-20T17:03:03;11.40;;;10.00;;
2313;SDS011;42279;51.388;7.000;2023-01-20T17:05:29;14.70;;;10.48;;
2313;SDS011;42279;51.388;7.000;2023-01-20T17:07:56;11.52;;;9.40;;